TimeAKDT,TemperatureF,Dew PointF,Humidity,Sea Level PressureIn,VisibilityMPH,Wind Direction,Wind SpeedMPH,Gust SpeedMPH,PrecipitationIn,Events,Conditions,WindDirDegrees,DateUTC
12:01 AM,33.1,33.1,100,30.11,7.0,Calm,Calm,-,N/A,,Unknown,0,2013-05-28 08:01:00
1:01 AM,33.1,33.1,100,30.11,5.0,ENE,3.5,-,N/A,,Mist,70,2013-05-28 09:01:00
2:01 AM,33.1,33.1,100,30.10,4.0,East,4.6,-,N/A,,Mist,80,2013-05-28 10:01:00
3:01 AM,-9999,-9999,N/A,30.10,3.0,East,6.9,-,N/A,,Mist,80,2013-05-28 11:01:00
3:18 AM,33.8,-9999,N/A,30.10,2.0,East,5.8,-,N/A,,Mist,80,2013-05-28 11:18:00
3:51 AM,33.8,33.8,100,30.10,3.0,East,8.1,-,N/A,,Mist,80,2013-05-28 11:51:00
4:01 AM,33.1,33.1,100,30.09,4.0,East,8.1,-,N/A,,Mist,80,2013-05-28 12:01:00
5:01 AM,33.1,33.1,100,30.09,5.0,East,8.1,-,N/A,,Mist,80,2013-05-28 13:01:00
6:01 AM,33.1,33.1,100,30.09,5.0,East,9.2,-,N/A,,Mist,80,2013-05-28 14:01:00
7:01 AM,33.1,33.1,100,30.08,3.0,East,10.4,-,N/A,,Mist,80,2013-05-28 15:01:00
8:01 AM,33.1,33.1,100,30.07,7.0,East,12.7,-,N/A,,Unknown,80,2013-05-28 16:01:00
9:01 AM,34.0,34.0,100,30.07,9.0,East,12.7,-,N/A,,Unknown,80,2013-05-28 17:01:00
10:01 AM,34.0,34.0,100,30.07,9.0,East,11.5,-,N/A,,Unknown,80,2013-05-28 18:01:00
11:01 AM,34.0,34.0,100,30.07,9.0,ENE,13.8,-,N/A,,Unknown,70,2013-05-28 19:01:00
12:01 PM,34.0,34.0,100,30.06,10.0,ENE,15.0,-,N/A,,Unknown,70,2013-05-28 20:01:00
1:01 PM,34.0,33.1,96,30.06,10.0,ENE,15.0,-,N/A,,Unknown,70,2013-05-28 21:01:00
2:01 PM,33.1,33.1,100,30.06,6.0,East,15.0,-,N/A,,Mist,80,2013-05-28 22:01:00
3:01 PM,33.1,33.1,100,30.05,8.0,East,15.0,-,N/A,,Unknown,90,2013-05-28 23:01:00
4:01 PM,33.1,33.1,100,30.04,10.0,East,16.1,-,N/A,,Unknown,80,2013-05-29 00:01:00
5:01 PM,33.1,33.1,100,30.02,10.0,East,18.4,-,N/A,,Unknown,90,2013-05-29 01:01:00
6:01 PM,33.1,33.1,100,30.02,10.0,East,17.3,-,N/A,,Unknown,80,2013-05-29 02:01:00
7:01 PM,33.1,33.1,100,30.01,10.0,East,18.4,-,N/A,,Unknown,80,2013-05-29 03:01:00
8:01 PM,33.1,33.1,100,29.99,10.0,East,20.7,-,N/A,,Unknown,80,2013-05-29 04:01:00
9:01 PM,33.1,33.1,100,29.99,10.0,East,17.3,-,N/A,,Unknown,80,2013-05-29 05:01:00
10:01 PM,33.1,33.1,100,29.99,10.0,East,17.3,-,N/A,,Unknown,80,2013-05-29 06:01:00
11:01 PM,33.1,33.1,100,29.98,10.0,East,18.4,-,N/A,,Unknown,80,2013-05-29 07:01:00